sensor_id;sensor_type;location;lat;lon;timestamp;temperature;humidity
69324;DHT22;56470;47.350;8.718;2023-05-10T00:02:23;16.36;74.86
69324;DHT22;56470;47.350;8.718;2023-05-10T00:04:48;16.37;74.85
69324;DHT22;56470;47.350;8.718;2023-05-10T00:07:13;16.42;74.84
69324;DHT22;56470;47.350;8.718;2023-05-10T00:09:39;16.49;74.76
69324;DHT22;56470;47.350;8.718;2023-05-10T00:12:05;16.54;74.45
69324;DHT22;56470;47.350;8.718;2023-05-10T00:14:30;16.52;74.40
69324;DHT22;56470;47.350;8.718;2023-05-10T00:16:55;16.56;74.38
69324;DHT22;56470;47.350;8.718;2023-05-10T00:19:21;16.56;74.22
69324;DHT22;56470;47.350;8.718;2023-05-10T00:21:46;16.54;74.13
69324;DHT22;56470;47.350;8.718;2023-05-10T00:24:11;16.57;74.29
69324;DHT22;56470;47.350;8.718;2023-05-10T00:26:37;16.60;74.27
69324;DHT22;56470;47.350;8.718;2023-05-10T00:29:02;16.65;74.21
69324;DHT22;56470;47.350;8.718;2023-05-10T00:31:27;16.64;74.16
69324;DHT22;56470;47.350;8.718;2023-05-10T00:33:53;16.64;73.96
69324;DHT22;56470;47.350;8.718;2023-05-10T00:36:18;16.63;74.12
69324;DHT22;56470;47.350;8.718;2023-05-10T00:38:43;16.67;74.14
69324;DHT22;56470;47.350;8.718;2023-05-10T00:41:09;16.70;74.18
69324;DHT22;56470;47.350;8.718;2023-05-10T00:43:34;16.68;73.97
69324;DHT22;56470;47.350;8.718;2023-05-10T00:45:59;16.71;74.03
69324;DHT22;56470;47.350;8.718;2023-05-10T00:48:25;16.70;74.01
69324;DHT22;56470;47.350;8.718;2023-05-10T00:50:50;16.71;74.06
69324;DHT22;56470;47.350;8.718;2023-05-10T00:53:16;16.72;74.05
69324;DHT22;56470;47.350;8.718;2023-05-10T00:55:42;16.72;73.82
69324;DHT22;56470;47.350;8.718;2023-05-10T00:58:07;16.72;73.65
69324;DHT22;56470;47.350;8.718;2023-05-10T01:00:36;16.71;73.62
69324;DHT22;56470;47.350;8.718;2023-05-10T01:03:02;16.70;73.40
69324;DHT22;56470;47.350;8.718;2023-05-10T01:05:27;16.70;73.28
69324;DHT22;56470;47.350;8.718;2023-05-10T01:07:53;16.64;73.22
69324;DHT22;56470;47.350;8.718;2023-05-10T01:10:18;16.67;73.10
69324;DHT22;56470;47.350;8.718;2023-05-10T01:12:45;16.64;72.95
69324;DHT22;56470;47.350;8.718;2023-05-10T01:15:12;16.61;72.71
69324;DHT22;56470;47.350;8.718;2023-05-10T01:17:39;16.54;72.67
69324;DHT22;56470;47.350;8.718;2023-05-10T01:20:07;16.53;72.73
69324;DHT22;56470;47.350;8.718;2023-05-10T01:23:01;16.50;72.33
69324;DHT22;56470;47.350;8.718;2023-05-10T01:31:21;16.47;72.43
69324;DHT22;56470;47.350;8.718;2023-05-10T01:33:55;16.42;72.58
69324;DHT22;56470;47.350;8.718;2023-05-10T01:36:40;16.39;72.42
69324;DHT22;56470;47.350;8.718;2023-05-10T01:39:17;16.40;72.41
69324;DHT22;56470;47.350;8.718;2023-05-10T01:44:39;16.34;72.36
69324;DHT22;56470;47.350;8.718;2023-05-10T01:47:14;16.34;72.36
69324;DHT22;56470;47.350;8.718;2023-05-10T01:49:53;16.32;72.43
69324;DHT22;56470;47.350;8.718;2023-05-10T01:52:24;16.30;72.62
69324;DHT22;56470;47.350;8.718;2023-05-10T01:54:58;16.27;72.61
69324;DHT22;56470;47.350;8.718;2023-05-10T01:57:27;16.10;72.59
69324;DHT22;56470;47.350;8.718;2023-05-10T01:59:56;16.01;72.81
69324;DHT22;56470;47.350;8.718;2023-05-10T02:02:23;16.01;73.15
69324;DHT22;56470;47.350;8.718;2023-05-10T02:04:50;15.98;73.14
69324;DHT22;56470;47.350;8.718;2023-05-10T02:07:17;15.94;73.47
69324;DHT22;56470;47.350;8.718;2023-05-10T02:09:44;15.88;73.18
69324;DHT22;56470;47.350;8.718;2023-05-10T02:12:13;15.90;73.50
69324;DHT22;56470;47.350;8.718;2023-05-10T02:14:40;15.97;73.62
69324;DHT22;56470;47.350;8.718;2023-05-10T02:17:07;15.98;73.52
69324;DHT22;56470;47.350;8.718;2023-05-10T02:19:34;15.98;73.50
69324;DHT22;56470;47.350;8.718;2023-05-10T02:22:01;15.94;73.57
69324;DHT22;56470;47.350;8.718;2023-05-10T02:24:28;15.92;73.69
69324;DHT22;56470;47.350;8.718;2023-05-10T02:26:55;15.95;73.78
69324;DHT22;56470;47.350;8.718;2023-05-10T02:29:23;16.04;73.75
69324;DHT22;56470;47.350;8.718;2023-05-10T02:31:49;16.06;73.66
69324;DHT22;56470;47.350;8.718;2023-05-10T02:34:16;16.04;73.87
69324;DHT22;56470;47.350;8.718;2023-05-10T02:36:42;16.05;73.94
69324;DHT22;56470;47.350;8.718;2023-05-10T02:39:08;16.10;73.84
69324;DHT22;56470;47.350;8.718;2023-05-10T02:41:38;16.12;73.71
69324;DHT22;56470;47.350;8.718;2023-05-10T02:44:06;16.19;73.62
69324;DHT22;56470;47.350;8.718;2023-05-10T02:46:33;16.22;73.49
69324;DHT22;56470;47.350;8.718;2023-05-10T02:48:58;16.22;73.51
69324;DHT22;56470;47.350;8.718;2023-05-10T02:51:25;16.25;73.39
69324;DHT22;56470;47.350;8.718;2023-05-10T02:53:54;16.22;73.05
69324;DHT22;56470;47.350;8.718;2023-05-10T02:56:25;16.16;72.91
69324;DHT22;56470;47.350;8.718;2023-05-10T02:58:52;16.15;73.11
69324;DHT22;56470;47.350;8.718;2023-05-10T03:01:17;16.18;72.97
69324;DHT22;56470;47.350;8.718;2023-05-10T03:03:43;16.13;72.94
69324;DHT22;56470;47.350;8.718;2023-05-10T03:06:08;16.12;73.08
69324;DHT22;56470;47.350;8.718;2023-05-10T03:08:34;16.10;72.95
69324;DHT22;56470;47.350;8.718;2023-05-10T03:14:25;15.97;73.00
69324;DHT22;56470;47.350;8.718;2023-05-10T03:17:02;16.01;73.08
69324;DHT22;56470;47.350;8.718;2023-05-10T03:19:42;15.95;73.09
69324;DHT22;56470;47.350;8.718;2023-05-10T03:22:10;15.88;73.02
69324;DHT22;56470;47.350;8.718;2023-05-10T03:24:39;15.94;73.24
69324;DHT22;56470;47.350;8.718;2023-05-10T03:27:07;15.95;73.10
69324;DHT22;56470;47.350;8.718;2023-05-10T03:29:33;15.95;73.13
69324;DHT22;56470;47.350;8.718;2023-05-10T03:31:59;16.05;73.08
69324;DHT22;56470;47.350;8.718;2023-05-10T03:34:29;16.09;73.01
69324;DHT22;56470;47.350;8.718;2023-05-10T03:36:55;16.15;72.95
69324;DHT22;56470;47.350;8.718;2023-05-10T03:39:20;16.19;72.84
69324;DHT22;56470;47.350;8.718;2023-05-10T03:41:47;16.22;72.81
69324;DHT22;56470;47.350;8.718;2023-05-10T03:44:13;16.26;72.78
69324;DHT22;56470;47.350;8.718;2023-05-10T03:46:38;16.29;72.68
69324;DHT22;56470;47.350;8.718;2023-05-10T03:49:03;16.27;72.80
69324;DHT22;56470;47.350;8.718;2023-05-10T03:51:29;16.25;72.80
69324;DHT22;56470;47.350;8.718;2023-05-10T03:53:56;16.27;72.78
69324;DHT22;56470;47.350;8.718;2023-05-10T03:56:21;16.30;72.69
69324;DHT22;56470;47.350;8.718;2023-05-10T03:58:46;16.27;72.65
69324;DHT22;56470;47.350;8.718;2023-05-10T04:01:12;16.30;72.62
69324;DHT22;56470;47.350;8.718;2023-05-10T04:03:37;16.29;72.64
69324;DHT22;56470;47.350;8.718;2023-05-10T04:06:03;16.29;72.64
69324;DHT22;56470;47.350;8.718;2023-05-10T04:08:29;16.30;72.64
69324;DHT22;56470;47.350;8.718;2023-05-10T04:10:55;16.23;72.65
69324;DHT22;56470;47.350;8.718;2023-05-10T04:13:29;16.25;72.77
69324;DHT22;56470;47.350;8.718;2023-05-10T04:15:54;16.27;72.69
69324;DHT22;56470;47.350;8.718;2023-05-10T04:18:19;16.27;72.73
69324;DHT22;56470;47.350;8.718;2023-05-10T04:20:45;16.29;72.67
69324;DHT22;56470;47.350;8.718;2023-05-10T04:23:10;16.27;72.48
69324;DHT22;56470;47.350;8.718;2023-05-10T04:25:35;16.26;72.52
69324;DHT22;56470;47.350;8.718;2023-05-10T04:28:01;16.19;72.44
69324;DHT22;56470;47.350;8.718;2023-05-10T04:30:26;16.18;72.50
69324;DHT22;56470;47.350;8.718;2023-05-10T04:32:54;16.13;72.51
69324;DHT22;56470;47.350;8.718;2023-05-10T04:35:19;16.10;72.42
69324;DHT22;56470;47.350;8.718;2023-05-10T04:38:12;16.04;71.98
69324;DHT22;56470;47.350;8.718;2023-05-10T04:40:37;15.94;72.36
69324;DHT22;56470;47.350;8.718;2023-05-10T04:43:02;15.90;72.30
69324;DHT22;56470;47.350;8.718;2023-05-10T04:45:28;15.94;72.27
69324;DHT22;56470;47.350;8.718;2023-05-10T04:47:53;15.94;72.24
69324;DHT22;56470;47.350;8.718;2023-05-10T04:50:18;15.99;72.18
69324;DHT22;56470;47.350;8.718;2023-05-10T04:52:47;15.99;72.19
69324;DHT22;56470;47.350;8.718;2023-05-10T04:55:12;16.04;72.16
69324;DHT22;56470;47.350;8.718;2023-05-10T04:57:38;16.09;72.12
69324;DHT22;56470;47.350;8.718;2023-05-10T05:00:04;16.09;72.08
69324;DHT22;56470;47.350;8.718;2023-05-10T05:02:30;16.06;72.06
69324;DHT22;56470;47.350;8.718;2023-05-10T05:04:56;16.01;72.02
69324;DHT22;56470;47.350;8.718;2023-05-10T05:07:22;15.90;72.16
69324;DHT22;56470;47.350;8.718;2023-05-10T05:09:48;15.80;72.10
69324;DHT22;56470;47.350;8.718;2023-05-10T05:12:13;15.77;72.03
69324;DHT22;56470;47.350;8.718;2023-05-10T05:14:40;15.70;71.89
69324;DHT22;56470;47.350;8.718;2023-05-10T05:17:05;15.60;71.94
69324;DHT22;56470;47.350;8.718;2023-05-10T05:19:31;15.63;71.94
69324;DHT22;56470;47.350;8.718;2023-05-10T05:21:56;15.64;71.91
69324;DHT22;56470;47.350;8.718;2023-05-10T05:24:21;15.63;71.79
69324;DHT22;56470;47.350;8.718;2023-05-10T05:26:47;15.50;71.56
69324;DHT22;56470;47.350;8.718;2023-05-10T05:29:12;15.39;71.90
69324;DHT22;56470;47.350;8.718;2023-05-10T05:31:37;15.33;72.18
69324;DHT22;56470;47.350;8.718;2023-05-10T05:34:03;15.19;72.45
69324;DHT22;56470;47.350;8.718;2023-05-10T05:36:28;15.16;72.85
69324;DHT22;56470;47.350;8.718;2023-05-10T05:38:53;15.16;72.85
69324;DHT22;56470;47.350;8.718;2023-05-10T05:41:19;15.15;72.92
69324;DHT22;56470;47.350;8.718;2023-05-10T05:43:45;15.12;73.08
69324;DHT22;56470;47.350;8.718;2023-05-10T05:46:10;15.11;73.28
69324;DHT22;56470;47.350;8.718;2023-05-10T05:48:35;15.08;73.17
69324;DHT22;56470;47.350;8.718;2023-05-10T05:51:00;15.05;73.36
69324;DHT22;56470;47.350;8.718;2023-05-10T05:53:26;15.06;73.30
69324;DHT22;56470;47.350;8.718;2023-05-10T05:55:57;15.11;73.18
69324;DHT22;56470;47.350;8.718;2023-05-10T05:58:23;15.11;72.78
69324;DHT22;56470;47.350;8.718;2023-05-10T06:00:49;15.02;72.67
69324;DHT22;56470;47.350;8.718;2023-05-10T06:03:15;14.94;72.94
69324;DHT22;56470;47.350;8.718;2023-05-10T06:05:40;14.89;72.91
69324;DHT22;56470;47.350;8.718;2023-05-10T06:08:06;14.87;72.85
69324;DHT22;56470;47.350;8.718;2023-05-10T06:10:31;14.81;72.77
69324;DHT22;56470;47.350;8.718;2023-05-10T06:12:57;14.78;72.79
69324;DHT22;56470;47.350;8.718;2023-05-10T06:15:22;14.73;73.06
69324;DHT22;56470;47.350;8.718;2023-05-10T06:17:47;14.67;73.17
69324;DHT22;56470;47.350;8.718;2023-05-10T06:20:15;14.57;73.54
69324;DHT22;56470;47.350;8.718;2023-05-10T06:22:40;14.41;74.23
69324;DHT22;56470;47.350;8.718;2023-05-10T06:25:06;14.16;74.78
69324;DHT22;56470;47.350;8.718;2023-05-10T06:27:32;14.13;75.15
69324;DHT22;56470;47.350;8.718;2023-05-10T06:29:57;14.16;75.00
69324;DHT22;56470;47.350;8.718;2023-05-10T06:32:22;14.25;75.02
69324;DHT22;56470;47.350;8.718;2023-05-10T06:34:48;14.39;74.96
69324;DHT22;56470;47.350;8.718;2023-05-10T06:37:13;14.47;74.87
69324;DHT22;56470;47.350;8.718;2023-05-10T06:39:38;14.56;74.78
69324;DHT22;56470;47.350;8.718;2023-05-10T06:42:04;14.59;74.71
69324;DHT22;56470;47.350;8.718;2023-05-10T06:44:30;14.60;74.51
69324;DHT22;56470;47.350;8.718;2023-05-10T06:46:55;14.59;74.51
69324;DHT22;56470;47.350;8.718;2023-05-10T06:49:21;14.53;74.71
69324;DHT22;56470;47.350;8.718;2023-05-10T06:51:46;14.59;74.81
69324;DHT22;56470;47.350;8.718;2023-05-10T06:54:12;14.68;74.96
69324;DHT22;56470;47.350;8.718;2023-05-10T06:56:37;14.71;74.95
69324;DHT22;56470;47.350;8.718;2023-05-10T06:59:02;14.80;75.20
69324;DHT22;56470;47.350;8.718;2023-05-10T07:01:28;14.89;75.30
69324;DHT22;56470;47.350;8.718;2023-05-10T07:03:53;15.01;75.14
69324;DHT22;56470;47.350;8.718;2023-05-10T07:06:19;15.15;74.81
69324;DHT22;56470;47.350;8.718;2023-05-10T07:08:44;15.22;74.46
69324;DHT22;56470;47.350;8.718;2023-05-10T07:11:09;15.29;74.51
69324;DHT22;56470;47.350;8.718;2023-05-10T07:13:37;15.37;74.37
69324;DHT22;56470;47.350;8.718;2023-05-10T07:16:06;15.37;73.56
69324;DHT22;56470;47.350;8.718;2023-05-10T07:18:33;15.35;73.51
69324;DHT22;56470;47.350;8.718;2023-05-10T07:20:58;15.39;73.67
69324;DHT22;56470;47.350;8.718;2023-05-10T07:23:24;15.46;73.58
69324;DHT22;56470;47.350;8.718;2023-05-10T07:25:50;15.54;73.45
69324;DHT22;56470;47.350;8.718;2023-05-10T07:28:17;15.60;73.22
69324;DHT22;56470;47.350;8.718;2023-05-10T07:30:43;15.63;73.11
69324;DHT22;56470;47.350;8.718;2023-05-10T07:33:09;15.65;72.95
69324;DHT22;56470;47.350;8.718;2023-05-10T07:35:35;15.67;72.80
69324;DHT22;56470;47.350;8.718;2023-05-10T07:38:01;15.74;72.64
69324;DHT22;56470;47.350;8.718;2023-05-10T07:40:26;15.77;72.47
69324;DHT22;56470;47.350;8.718;2023-05-10T07:42:52;15.78;72.35
69324;DHT22;56470;47.350;8.718;2023-05-10T07:45:17;15.77;71.95
69324;DHT22;56470;47.350;8.718;2023-05-10T07:47:43;15.73;71.88
69324;DHT22;56470;47.350;8.718;2023-05-10T07:50:08;15.74;71.81
69324;DHT22;56470;47.350;8.718;2023-05-10T07:52:33;15.74;71.62
69324;DHT22;56470;47.350;8.718;2023-05-10T07:54:59;15.71;71.56
69324;DHT22;56470;47.350;8.718;2023-05-10T07:57:24;15.68;71.45
69324;DHT22;56470;47.350;8.718;2023-05-10T07:59:50;15.67;71.38
69324;DHT22;56470;47.350;8.718;2023-05-10T08:02:15;15.64;71.58
69324;DHT22;56470;47.350;8.718;2023-05-10T08:04:43;15.56;71.46
69324;DHT22;56470;47.350;8.718;2023-05-10T08:07:09;15.53;71.77
69324;DHT22;56470;47.350;8.718;2023-05-10T08:09:34;15.51;71.78
69324;DHT22;56470;47.350;8.718;2023-05-10T08:11:59;15.43;72.07
69324;DHT22;56470;47.350;8.718;2023-05-10T08:14:26;15.43;72.27
69324;DHT22;56470;47.350;8.718;2023-05-10T08:16:52;15.46;71.98
69324;DHT22;56470;47.350;8.718;2023-05-10T08:19:17;15.44;71.50
69324;DHT22;56470;47.350;8.718;2023-05-10T08:21:45;15.37;71.21
69324;DHT22;56470;47.350;8.718;2023-05-10T08:24:10;15.35;71.41
69324;DHT22;56470;47.350;8.718;2023-05-10T08:26:36;15.25;71.47
69324;DHT22;56470;47.350;8.718;2023-05-10T08:29:01;15.23;71.59
69324;DHT22;56470;47.350;8.718;2023-05-10T08:31:26;15.23;71.75
69324;DHT22;56470;47.350;8.718;2023-05-10T08:33:57;15.26;71.69
69324;DHT22;56470;47.350;8.718;2023-05-10T08:36:22;15.33;71.88
69324;DHT22;56470;47.350;8.718;2023-05-10T08:38:53;15.39;71.64
69324;DHT22;56470;47.350;8.718;2023-05-10T08:41:23;15.40;71.43
69324;DHT22;56470;47.350;8.718;2023-05-10T08:43:52;15.43;71.56
69324;DHT22;56470;47.350;8.718;2023-05-10T08:46:19;15.47;71.54
69324;DHT22;56470;47.350;8.718;2023-05-10T08:48:46;15.56;71.25
69324;DHT22;56470;47.350;8.718;2023-05-10T08:51:18;15.57;71.24
69324;DHT22;56470;47.350;8.718;2023-05-10T08:53:44;15.63;71.25
69324;DHT22;56470;47.350;8.718;2023-05-10T08:56:10;15.70;70.90
69324;DHT22;56470;47.350;8.718;2023-05-10T08:58:36;15.68;70.33
69324;DHT22;56470;47.350;8.718;2023-05-10T09:01:03;15.64;70.36
69324;DHT22;56470;47.350;8.718;2023-05-10T09:03:29;15.65;70.61
69324;DHT22;56470;47.350;8.718;2023-05-10T09:05:55;15.71;70.54
69324;DHT22;56470;47.350;8.718;2023-05-10T09:08:24;15.77;70.23
69324;DHT22;56470;47.350;8.718;2023-05-10T09:10:54;15.77;70.01
69324;DHT22;56470;47.350;8.718;2023-05-10T09:13:21;15.74;69.91
69324;DHT22;56470;47.350;8.718;2023-05-10T09:15:47;15.77;69.86
69324;DHT22;56470;47.350;8.718;2023-05-10T09:18:12;15.84;69.87
69324;DHT22;56470;47.350;8.718;2023-05-10T09:20:38;15.87;69.75
69324;DHT22;56470;47.350;8.718;2023-05-10T09:23:03;15.91;69.43
69324;DHT22;56470;47.350;8.718;2023-05-10T09:25:28;15.94;69.41
69324;DHT22;56470;47.350;8.718;2023-05-10T09:27:54;15.99;69.44
69324;DHT22;56470;47.350;8.718;2023-05-10T09:30:30;16.02;69.16
69324;DHT22;56470;47.350;8.718;2023-05-10T09:32:56;16.01;68.94
69324;DHT22;56470;47.350;8.718;2023-05-10T09:35:28;15.92;68.84
69324;DHT22;56470;47.350;8.718;2023-05-10T09:37:56;15.87;68.94
69324;DHT22;56470;47.350;8.718;2023-05-10T09:40:25;15.82;68.99
69324;DHT22;56470;47.350;8.718;2023-05-10T09:45:16;15.74;69.23
69324;DHT22;56470;47.350;8.718;2023-05-10T09:47:42;15.58;69.05
69324;DHT22;56470;47.350;8.718;2023-05-10T09:50:07;15.40;69.53
69324;DHT22;56470;47.350;8.718;2023-05-10T09:53:20;15.35;69.13
69324;DHT22;56470;47.350;8.718;2023-05-10T09:55:46;15.42;69.83
69324;DHT22;56470;47.350;8.718;2023-05-10T09:58:13;15.44;69.97
69324;DHT22;56470;47.350;8.718;2023-05-10T10:00:41;15.53;70.00
69324;DHT22;56470;47.350;8.718;2023-05-10T10:03:15;15.60;69.59
69324;DHT22;56470;47.350;8.718;2023-05-10T10:05:41;15.63;69.63
69324;DHT22;56470;47.350;8.718;2023-05-10T10:08:10;15.56;69.45
69324;DHT22;56470;47.350;8.718;2023-05-10T10:10:36;15.56;69.89
69324;DHT22;56470;47.350;8.718;2023-05-10T10:13:03;15.53;70.01
69324;DHT22;56470;47.350;8.718;2023-05-10T10:15:30;15.46;70.31
69324;DHT22;56470;47.350;8.718;2023-05-10T10:17:55;15.39;70.51
69324;DHT22;56470;47.350;8.718;2023-05-10T10:20:22;15.29;70.75
69324;DHT22;56470;47.350;8.718;2023-05-10T10:22:48;15.23;70.89
69324;DHT22;56470;47.350;8.718;2023-05-10T10:25:16;15.16;70.75
69324;DHT22;56470;47.350;8.718;2023-05-10T10:33:26;15.22;71.47
69324;DHT22;56470;47.350;8.718;2023-05-10T10:35:55;15.20;71.37
69324;DHT22;56470;47.350;8.718;2023-05-10T10:38:23;15.09;71.69
69324;DHT22;56470;47.350;8.718;2023-05-10T10:40:56;15.06;71.83
69324;DHT22;56470;47.350;8.718;2023-05-10T10:43:27;15.06;71.93
69324;DHT22;56470;47.350;8.718;2023-05-10T10:48:49;15.12;72.19
69324;DHT22;56470;47.350;8.718;2023-05-10T10:51:16;15.12;71.78
69324;DHT22;56470;47.350;8.718;2023-05-10T10:53:42;15.20;71.83
69324;DHT22;56470;47.350;8.718;2023-05-10T10:56:09;15.28;71.46
69324;DHT22;56470;47.350;8.718;2023-05-10T10:58:39;15.37;70.87
69324;DHT22;56470;47.350;8.718;2023-05-10T11:03:39;15.42;71.21
69324;DHT22;56470;47.350;8.718;2023-05-10T11:06:04;15.35;71.36
69324;DHT22;56470;47.350;8.718;2023-05-10T11:08:30;15.29;71.60
69324;DHT22;56470;47.350;8.718;2023-05-10T11:13:33;15.09;71.35
69324;DHT22;56470;47.350;8.718;2023-05-10T11:16:09;15.02;71.66
69324;DHT22;56470;47.350;8.718;2023-05-10T11:18:36;15.03;71.83
69324;DHT22;56470;47.350;8.718;2023-05-10T11:21:02;15.06;71.51
69324;DHT22;56470;47.350;8.718;2023-05-10T11:26:09;15.22;71.86
69324;DHT22;56470;47.350;8.718;2023-05-10T11:28:40;15.09;72.49
69324;DHT22;56470;47.350;8.718;2023-05-10T11:31:06;15.06;72.61
69324;DHT22;56470;47.350;8.718;2023-05-10T11:33:45;14.98;73.16
69324;DHT22;56470;47.350;8.718;2023-05-10T11:36:13;14.95;72.88
69324;DHT22;56470;47.350;8.718;2023-05-10T11:38:39;14.88;72.99
69324;DHT22;56470;47.350;8.718;2023-05-10T11:41:04;14.80;73.15
69324;DHT22;56470;47.350;8.718;2023-05-10T11:43:30;14.73;73.39
69324;DHT22;56470;47.350;8.718;2023-05-10T11:45:55;14.55;73.61
69324;DHT22;56470;47.350;8.718;2023-05-10T11:48:21;14.46;73.53
69324;DHT22;56470;47.350;8.718;2023-05-10T11:50:49;14.41;73.76
69324;DHT22;56470;47.350;8.718;2023-05-10T11:53:14;14.29;73.88
69324;DHT22;56470;47.350;8.718;2023-05-10T11:55:40;14.18;74.43
69324;DHT22;56470;47.350;8.718;2023-05-10T11:58:05;14.19;74.34
69324;DHT22;56470;47.350;8.718;2023-05-10T12:00:31;14.13;74.92
69324;DHT22;56470;47.350;8.718;2023-05-10T12:02:56;14.04;75.63
69324;DHT22;56470;47.350;8.718;2023-05-10T12:05:22;13.92;76.13
69324;DHT22;56470;47.350;8.718;2023-05-10T12:07:48;13.89;75.00
69324;DHT22;56470;47.350;8.718;2023-05-10T12:10:13;13.89;75.36
69324;DHT22;56470;47.350;8.718;2023-05-10T12:12:46;13.88;75.55
69324;DHT22;56470;47.350;8.718;2023-05-10T12:15:21;13.91;76.04
69324;DHT22;56470;47.350;8.718;2023-05-10T12:17:47;13.88;75.58
69324;DHT22;56470;47.350;8.718;2023-05-10T12:20:21;13.92;75.89
69324;DHT22;56470;47.350;8.718;2023-05-10T12:22:52;13.98;75.48
69324;DHT22;56470;47.350;8.718;2023-05-10T12:25:18;13.92;74.62
69324;DHT22;56470;47.350;8.718;2023-05-10T12:27:52;13.87;74.72
69324;DHT22;56470;47.350;8.718;2023-05-10T12:30:25;13.89;75.03
69324;DHT22;56470;47.350;8.718;2023-05-10T12:32:51;13.95;74.96
69324;DHT22;56470;47.350;8.718;2023-05-10T12:35:17;13.98;74.85
69324;DHT22;56470;47.350;8.718;2023-05-10T12:37:45;13.91;74.41
69324;DHT22;56470;47.350;8.718;2023-05-10T12:40:11;13.95;74.70
69324;DHT22;56470;47.350;8.718;2023-05-10T12:42:38;14.02;74.98
69324;DHT22;56470;47.350;8.718;2023-05-10T12:45:04;14.00;74.90
69324;DHT22;56470;47.350;8.718;2023-05-10T12:47:31;13.92;74.66
69324;DHT22;56470;47.350;8.718;2023-05-10T12:49:56;13.87;75.38
69324;DHT22;56470;47.350;8.718;2023-05-10T12:52:22;13.75;74.87
69324;DHT22;56470;47.350;8.718;2023-05-10T12:54:47;13.63;75.33
69324;DHT22;56470;47.350;8.718;2023-05-10T12:57:13;13.67;75.53
69324;DHT22;56470;47.350;8.718;2023-05-10T12:59:38;13.61;75.22
69324;DHT22;56470;47.350;8.718;2023-05-10T13:02:04;13.59;75.22
69324;DHT22;56470;47.350;8.718;2023-05-10T13:04:29;13.68;76.15
69324;DHT22;56470;47.350;8.718;2023-05-10T13:06:55;13.73;75.89
69324;DHT22;56470;47.350;8.718;2023-05-10T13:09:27;13.75;76.21
69324;DHT22;56470;47.350;8.718;2023-05-10T13:11:54;13.70;76.48
69324;DHT22;56470;47.350;8.718;2023-05-10T13:14:20;13.73;75.77
69324;DHT22;56470;47.350;8.718;2023-05-10T13:16:46;13.85;75.89
69324;DHT22;56470;47.350;8.718;2023-05-10T13:19:12;13.78;75.82
69324;DHT22;56470;47.350;8.718;2023-05-10T13:21:38;13.73;75.75
69324;DHT22;56470;47.350;8.718;2023-05-10T13:24:03;13.84;75.40
69324;DHT22;56470;47.350;8.718;2023-05-10T13:26:29;13.91;75.35
69324;DHT22;56470;47.350;8.718;2023-05-10T13:28:54;14.02;75.54
69324;DHT22;56470;47.350;8.718;2023-05-10T13:31:20;14.11;75.68
69324;DHT22;56470;47.350;8.718;2023-05-10T13:33:46;14.15;75.08
69324;DHT22;56470;47.350;8.718;2023-05-10T13:36:11;14.11;74.89
69324;DHT22;56470;47.350;8.718;2023-05-10T13:38:36;14.19;75.20
69324;DHT22;56470;47.350;8.718;2023-05-10T13:41:02;14.13;75.51
69324;DHT22;56470;47.350;8.718;2023-05-10T13:43:28;14.00;75.13
69324;DHT22;56470;47.350;8.718;2023-05-10T13:45:54;13.95;75.25
69324;DHT22;56470;47.350;8.718;2023-05-10T13:48:19;13.88;75.39
69324;DHT22;56470;47.350;8.718;2023-05-10T13:50:44;13.84;75.42
69324;DHT22;56470;47.350;8.718;2023-05-10T13:53:10;13.84;75.75
69324;DHT22;56470;47.350;8.718;2023-05-10T13:55:35;13.75;75.78
69324;DHT22;56470;47.350;8.718;2023-05-10T13:58:00;13.70;75.25
69324;DHT22;56470;47.350;8.718;2023-05-10T14:00:26;13.67;75.64
69324;DHT22;56470;47.350;8.718;2023-05-10T14:02:51;13.74;75.44
69324;DHT22;56470;47.350;8.718;2023-05-10T14:05:17;13.85;75.96
69324;DHT22;56470;47.350;8.718;2023-05-10T14:07:42;13.97;75.61
69324;DHT22;56470;47.350;8.718;2023-05-10T14:10:08;14.08;75.33
69324;DHT22;56470;47.350;8.718;2023-05-10T14:12:33;14.08;74.94
69324;DHT22;56470;47.350;8.718;2023-05-10T14:14:58;14.05;74.63
69324;DHT22;56470;47.350;8.718;2023-05-10T14:17:24;14.08;74.79
69324;DHT22;56470;47.350;8.718;2023-05-10T14:19:49;14.11;74.71
69324;DHT22;56470;47.350;8.718;2023-05-10T14:22:14;14.08;74.57
69324;DHT22;56470;47.350;8.718;2023-05-10T14:24:40;14.04;74.73
69324;DHT22;56470;47.350;8.718;2023-05-10T14:27:05;14.00;75.11
69324;DHT22;56470;47.350;8.718;2023-05-10T14:29:31;13.97;74.97
69324;DHT22;56470;47.350;8.718;2023-05-10T14:31:56;13.84;74.90
69324;DHT22;56470;47.350;8.718;2023-05-10T14:34:21;13.81;74.99
69324;DHT22;56470;47.350;8.718;2023-05-10T14:36:47;13.78;75.41
69324;DHT22;56470;47.350;8.718;2023-05-10T14:39:12;13.88;75.10
69324;DHT22;56470;47.350;8.718;2023-05-10T14:41:38;13.82;75.02
69324;DHT22;56470;47.350;8.718;2023-05-10T14:44:06;13.91;75.16
69324;DHT22;56470;47.350;8.718;2023-05-10T14:46:32;14.02;74.73
69324;DHT22;56470;47.350;8.718;2023-05-10T14:48:57;14.08;73.59
69324;DHT22;56470;47.350;8.718;2023-05-10T14:51:23;14.19;73.87
69324;DHT22;56470;47.350;8.718;2023-05-10T14:53:48;14.28;73.90
69324;DHT22;56470;47.350;8.718;2023-05-10T14:56:14;14.28;73.84
69324;DHT22;56470;47.350;8.718;2023-05-10T14:58:40;14.28;73.86
69324;DHT22;56470;47.350;8.718;2023-05-10T15:01:05;14.29;73.73
69324;DHT22;56470;47.350;8.718;2023-05-10T15:03:30;14.22;72.67
69324;DHT22;56470;47.350;8.718;2023-05-10T15:05:56;14.19;72.48
69324;DHT22;56470;47.350;8.718;2023-05-10T15:08:22;14.15;72.70
69324;DHT22;56470;47.350;8.718;2023-05-10T15:10:50;14.18;72.59
69324;DHT22;56470;47.350;8.718;2023-05-10T15:13:15;14.21;72.62
69324;DHT22;56470;47.350;8.718;2023-05-10T15:15:40;14.28;72.91
69324;DHT22;56470;47.350;8.718;2023-05-10T15:18:06;14.34;72.74
69324;DHT22;56470;47.350;8.718;2023-05-10T15:20:31;14.32;72.41
69324;DHT22;56470;47.350;8.718;2023-05-10T15:22:56;14.30;71.84
69324;DHT22;56470;47.350;8.718;2023-05-10T15:25:22;14.34;72.51
69324;DHT22;56470;47.350;8.718;2023-05-10T15:27:48;14.47;72.63
69324;DHT22;56470;47.350;8.718;2023-05-10T15:30:14;14.46;71.37
69324;DHT22;56470;47.350;8.718;2023-05-10T15:32:39;14.44;71.71
69324;DHT22;56470;47.350;8.718;2023-05-10T15:35:07;14.50;71.82
69324;DHT22;56470;47.350;8.718;2023-05-10T15:37:33;14.57;71.38
69324;DHT22;56470;47.350;8.718;2023-05-10T15:39:58;14.56;71.41
69324;DHT22;56470;47.350;8.718;2023-05-10T15:42:31;14.44;70.97
69324;DHT22;56470;47.350;8.718;2023-05-10T15:44:57;14.47;71.28
69324;DHT22;56470;47.350;8.718;2023-05-10T15:47:23;14.53;71.04
69324;DHT22;56470;47.350;8.718;2023-05-10T15:49:48;14.56;70.51
69324;DHT22;56470;47.350;8.718;2023-05-10T15:52:17;14.53;70.58
69324;DHT22;56470;47.350;8.718;2023-05-10T15:54:45;14.57;70.87
69324;DHT22;56470;47.350;8.718;2023-05-10T15:57:11;14.60;71.20
69324;DHT22;56470;47.350;8.718;2023-05-10T15:59:36;14.70;71.84